createdAt,value
2022-12-25T00:00:35.271Z,5.88
2022-12-25T00:03:01.869Z,5.88
2022-12-25T00:05:28.379Z,5.90
2022-12-25T00:07:54.838Z,5.92
2022-12-25T00:10:21.222Z,5.97
2022-12-25T00:12:47.719Z,6.02
2022-12-25T00:15:14.227Z,6.07
2022-12-25T00:17:40.833Z,6.09
2022-12-25T00:20:10.991Z,6.13
2022-12-25T00:22:37.466Z,6.15
2022-12-25T00:25:04.361Z,6.22
2022-12-25T00:27:34.385Z,6.26
2022-12-25T00:30:01.050Z,6.28
2022-12-25T00:32:27.658Z,6.31
2022-12-25T00:34:54.161Z,6.33
2022-12-25T00:37:20.544Z,6.36
2022-12-25T00:39:48.969Z,6.36
2022-12-25T00:42:21.367Z,6.38
2022-12-25T00:44:48.923Z,6.38
2022-12-25T00:47:16.430Z,6.42
2022-12-25T00:49:45.478Z,6.46
2022-12-25T00:52:12.055Z,6.47
2022-12-25T00:54:38.685Z,6.50
2022-12-25T00:57:05.165Z,6.47
2022-12-25T00:59:33.413Z,6.47
2022-12-25T01:02:19.983Z,6.50
2022-12-25T01:04:46.565Z,6.51
2022-12-25T01:07:13.248Z,6.50
2022-12-25T01:09:58.692Z,6.52
2022-12-25T01:12:25.239Z,6.52
2022-12-25T01:14:51.733Z,6.55
2022-12-25T01:17:18.652Z,6.55
2022-12-25T01:19:45.141Z,6.55
2022-12-25T01:22:11.637Z,6.55
2022-12-25T01:24:38.087Z,6.56
2022-12-25T01:27:04.615Z,6.60
2022-12-25T01:29:30.995Z,6.62
2022-12-25T01:31:57.441Z,6.62
2022-12-25T01:34:23.907Z,6.67
2022-12-25T01:36:50.382Z,6.71
2022-12-25T01:39:16.821Z,6.68
2022-12-25T01:41:44.582Z,6.71
2022-12-25T01:44:13.778Z,6.73
2022-12-25T01:46:40.717Z,6.75
2022-12-25T01:49:14.623Z,6.73
2022-12-25T01:51:44.981Z,6.71
2022-12-25T01:54:25.739Z,6.68
2022-12-25T01:56:56.557Z,6.66
2022-12-25T01:59:26.077Z,6.61
2022-12-25T02:01:53.253Z,6.58
2022-12-25T02:04:38.735Z,6.53
2022-12-25T02:07:13.031Z,6.50
2022-12-25T02:09:39.553Z,6.46
2022-12-25T02:12:07.884Z,6.41
2022-12-25T02:14:37.347Z,6.39
2022-12-25T02:17:23.871Z,6.36
2022-12-25T02:20:02.306Z,6.33
2022-12-25T02:22:48.910Z,6.31
2022-12-25T02:25:24.367Z,6.26
2022-12-25T02:28:01.162Z,6.22
2022-12-25T02:30:32.808Z,6.24
2022-12-25T02:33:21.464Z,6.26
2022-12-25T02:35:52.844Z,6.27
2022-12-25T02:38:31.798Z,6.28
2022-12-25T02:41:03.411Z,6.35
2022-12-25T02:43:54.332Z,6.35
2022-12-25T02:46:42.361Z,6.31
2022-12-25T02:49:32.403Z,6.33
2022-12-25T02:52:45.128Z,6.39
2022-12-25T02:55:35.374Z,6.38
2022-12-25T02:58:25.545Z,6.37
2022-12-25T03:01:24.047Z,6.44
2022-12-25T03:04:12.281Z,6.51
2022-12-25T03:06:44.470Z,6.58
2022-12-25T03:09:35.826Z,6.61
2022-12-25T03:12:30.549Z,6.64
2022-12-25T03:15:15.446Z,6.57
2022-12-25T03:17:42.649Z,6.58
2022-12-25T03:20:28.396Z,6.62
2022-12-25T03:23:14.573Z,6.71
2022-12-25T03:25:59.540Z,6.75
2022-12-25T03:28:26.145Z,6.81
2022-12-25T03:31:31.181Z,6.83
2022-12-25T03:34:25.679Z,6.87
2022-12-25T03:37:22.346Z,6.91
2022-12-25T03:40:35.167Z,6.91
2022-12-25T03:44:02.239Z,6.94
2022-12-25T03:46:53.684Z,6.97
2022-12-25T03:50:22.168Z,6.96
2022-12-25T03:53:10.099Z,6.96
2022-12-25T03:55:55.826Z,6.95
2022-12-25T03:58:43.132Z,6.97
2022-12-25T04:01:28.354Z,6.96
2022-12-25T04:04:13.627Z,6.94
2022-12-25T04:06:58.894Z,6.91
2022-12-25T04:09:43.778Z,6.86
2022-12-25T04:12:29.208Z,6.79
2022-12-25T04:15:13.765Z,6.71
2022-12-25T04:17:59.093Z,6.63
2022-12-25T04:20:43.963Z,6.68
2022-12-25T04:23:29.292Z,6.69
2022-12-25T04:26:16.570Z,6.72
2022-12-25T04:29:01.949Z,6.71
2022-12-25T04:31:46.816Z,6.70
2022-12-25T04:34:31.500Z,6.64
2022-12-25T04:36:57.892Z,6.61
2022-12-25T04:39:24.261Z,6.59
2022-12-25T04:41:50.650Z,6.58
2022-12-25T04:44:17.285Z,6.56
2022-12-25T04:46:44.005Z,6.54
2022-12-25T04:49:10.526Z,6.51
2022-12-25T04:51:37.260Z,6.47
2022-12-25T04:54:03.725Z,6.43
2022-12-25T04:56:30.249Z,6.40
2022-12-25T04:58:56.739Z,6.38
2022-12-25T05:01:23.269Z,6.37
2022-12-25T05:03:49.984Z,6.37
2022-12-25T05:06:16.580Z,6.34
2022-12-25T05:08:43.136Z,6.38
2022-12-25T05:11:12.405Z,6.38
2022-12-25T05:13:39.027Z,6.37
2022-12-25T05:16:12.598Z,6.34
2022-12-25T05:18:39.119Z,6.32
2022-12-25T05:21:06.287Z,6.33
2022-12-25T05:23:32.693Z,6.32
2022-12-25T05:25:59.845Z,6.35
2022-12-25T05:28:26.266Z,6.34
2022-12-25T05:30:57.161Z,6.33
2022-12-25T05:33:23.638Z,6.31
2022-12-25T05:35:50.084Z,6.31
2022-12-25T05:38:16.451Z,6.31
2022-12-25T05:40:42.868Z,6.28
2022-12-25T05:43:09.446Z,6.29
2022-12-25T05:45:36.302Z,6.31
2022-12-25T05:48:02.947Z,6.31
2022-12-25T05:50:29.392Z,6.31
2022-12-25T05:52:55.844Z,6.28
2022-12-25T05:55:22.322Z,6.28
2022-12-25T05:57:48.775Z,6.28
2022-12-25T06:00:15.404Z,6.29
2022-12-25T06:02:42.083Z,6.32
2022-12-25T06:05:09.998Z,6.36
2022-12-25T06:07:36.430Z,6.40
2022-12-25T06:10:02.896Z,6.43
2022-12-25T06:12:29.326Z,6.44
2022-12-25T06:14:55.824Z,6.47
2022-12-25T06:17:25.744Z,6.45
2022-12-25T06:19:53.092Z,6.48
2022-12-25T06:22:20.068Z,6.50
2022-12-25T06:24:46.681Z,6.50
2022-12-25T06:27:13.105Z,6.51
2022-12-25T06:29:39.630Z,6.51
2022-12-25T06:32:06.116Z,6.54
2022-12-25T06:34:32.673Z,6.54
2022-12-25T06:36:59.152Z,6.58
2022-12-25T06:39:25.621Z,6.61
2022-12-25T06:41:52.058Z,6.66
2022-12-25T06:44:18.853Z,6.71
2022-12-25T06:46:45.291Z,6.76
2022-12-25T06:49:11.861Z,6.80
2022-12-25T06:51:38.671Z,6.81
2022-12-25T06:54:06.049Z,6.81
2022-12-25T06:56:33.801Z,6.88
2022-12-25T06:59:03.144Z,6.90
2022-12-25T07:01:33.588Z,6.91
2022-12-25T07:04:03.014Z,6.91
2022-12-25T07:06:29.500Z,6.93
2022-12-25T07:08:56.000Z,6.92
2022-12-25T07:11:22.991Z,6.95
2022-12-25T07:13:49.503Z,6.97
2022-12-25T07:16:16.515Z,6.97
2022-12-25T07:18:43.401Z,7.00
2022-12-25T07:21:19.640Z,6.98
2022-12-25T07:23:49.730Z,7.01
2022-12-25T07:26:17.647Z,7.00
2022-12-25T07:28:47.305Z,7.01
2022-12-25T07:31:15.769Z,7.07
2022-12-25T07:33:42.930Z,7.09
2022-12-25T07:36:12.617Z,7.08
2022-12-25T07:38:41.214Z,7.08
2022-12-25T07:41:09.646Z,7.08
2022-12-25T07:43:36.203Z,7.08
2022-12-25T07:46:02.774Z,7.08
2022-12-25T07:48:29.597Z,7.09
2022-12-25T07:51:00.984Z,7.08
2022-12-25T07:53:27.957Z,7.10
2022-12-25T07:56:03.715Z,7.08
2022-12-25T07:58:30.923Z,7.08
2022-12-25T08:01:04.918Z,7.07
2022-12-25T08:03:33.372Z,7.08
2022-12-25T08:06:01.719Z,7.09
2022-12-25T08:08:28.549Z,7.09
2022-12-25T08:10:54.983Z,7.07
2022-12-25T08:13:21.667Z,7.08
2022-12-25T08:15:48.097Z,7.08
2022-12-25T08:18:14.578Z,7.10
2022-12-25T08:20:41.170Z,7.12
2022-12-25T08:23:07.732Z,7.13
2022-12-25T08:25:34.226Z,7.16
2022-12-25T08:28:01.566Z,7.15
2022-12-25T08:30:28.593Z,7.15
2022-12-25T08:32:55.704Z,7.16
2022-12-25T08:35:22.276Z,7.16
2022-12-25T08:37:48.752Z,7.15
2022-12-25T08:40:15.314Z,7.18
2022-12-25T08:42:41.804Z,7.18
2022-12-25T08:45:08.944Z,7.19
2022-12-25T08:47:35.388Z,7.19
2022-12-25T08:50:01.832Z,7.20
2022-12-25T08:52:29.540Z,7.21
2022-12-25T08:54:56.292Z,7.22
2022-12-25T08:57:22.753Z,7.25
2022-12-25T08:59:49.201Z,7.26
2022-12-25T09:02:17.678Z,7.26
2022-12-25T09:04:47.406Z,7.27
2022-12-25T09:07:13.893Z,7.29
2022-12-25T09:09:40.378Z,7.31
2022-12-25T09:12:06.955Z,7.31
2022-12-25T09:14:33.408Z,7.34
2022-12-25T09:16:59.893Z,7.36
2022-12-25T09:19:26.376Z,7.36
2022-12-25T09:21:52.804Z,7.39
2022-12-25T09:24:20.614Z,7.42
2022-12-25T09:26:47.151Z,7.44
2022-12-25T09:29:14.739Z,7.43
2022-12-25T09:31:42.429Z,7.45
2022-12-25T09:34:11.475Z,7.45
2022-12-25T09:36:41.908Z,7.47
2022-12-25T09:39:11.320Z,7.47
2022-12-25T09:41:44.042Z,7.48
2022-12-25T09:44:15.738Z,7.49
2022-12-25T09:46:47.263Z,7.49
2022-12-25T09:49:21.838Z,7.51
2022-12-25T09:51:53.585Z,7.55
2022-12-25T09:54:25.740Z,7.56
2022-12-25T09:56:52.273Z,7.57
2022-12-25T09:59:27.215Z,7.57
2022-12-25T10:02:34.986Z,7.57
2022-12-25T10:05:04.265Z,7.58
2022-12-25T10:07:42.753Z,7.56
2022-12-25T10:10:38.329Z,7.56
2022-12-25T10:13:25.930Z,7.56
2022-12-25T10:16:05.310Z,7.56
2022-12-25T10:18:53.636Z,7.56
2022-12-25T10:21:22.301Z,7.54
2022-12-25T10:24:03.707Z,7.56
2022-12-25T10:26:32.762Z,7.55
2022-12-25T10:29:05.297Z,7.57
2022-12-25T10:31:35.755Z,7.58
2022-12-25T10:34:03.550Z,7.59
2022-12-25T10:36:31.391Z,7.59
2022-12-25T10:38:58.167Z,7.59
2022-12-25T10:41:49.045Z,7.61
2022-12-25T10:44:21.521Z,7.62
2022-12-25T10:46:50.274Z,7.66
2022-12-25T10:49:20.727Z,7.67
2022-12-25T10:51:47.588Z,7.67
2022-12-25T10:54:25.059Z,7.67
2022-12-25T10:57:09.801Z,7.65
2022-12-25T10:59:43.576Z,7.66
2022-12-25T11:02:22.234Z,7.66
2022-12-25T11:04:49.135Z,7.67
2022-12-25T11:07:25.022Z,7.71
2022-12-25T11:10:04.733Z,7.71
2022-12-25T11:12:42.459Z,7.74
2022-12-25T11:15:30.774Z,7.73
2022-12-25T11:17:57.434Z,7.73
2022-12-25T11:20:24.419Z,7.73
2022-12-25T11:22:51.476Z,7.75
2022-12-25T11:25:24.087Z,7.76
2022-12-25T11:28:05.703Z,7.78
2022-12-25T11:30:33.706Z,7.78
2022-12-25T11:33:07.845Z,7.81
2022-12-25T11:35:46.049Z,7.84
2022-12-25T11:38:12.645Z,7.86
2022-12-25T11:40:52.025Z,7.90
2022-12-25T11:43:44.100Z,7.96
2022-12-25T11:46:18.654Z,7.97
2022-12-25T11:48:49.967Z,8.02
2022-12-25T11:51:17.655Z,8.06
2022-12-25T11:53:50.918Z,8.08
2022-12-25T11:56:24.007Z,8.08
2022-12-25T11:58:53.704Z,8.09
2022-12-25T12:01:47.183Z,8.10
2022-12-25T12:04:42.756Z,8.07
2022-12-25T12:07:24.357Z,8.06
2022-12-25T12:10:14.584Z,8.03
2022-12-25T12:12:57.443Z,8.02
2022-12-25T12:15:41.597Z,8.04
2022-12-25T12:18:28.344Z,8.07
2022-12-25T12:21:08.512Z,8.09
2022-12-25T12:23:47.875Z,8.09
2022-12-25T12:26:25.907Z,8.09
2022-12-25T12:28:55.505Z,8.10
2022-12-25T12:31:22.524Z,8.09
2022-12-25T12:33:54.432Z,8.09
2022-12-25T12:36:35.705Z,8.09
2022-12-25T12:39:05.041Z,8.09
2022-12-25T12:41:48.699Z,8.08
2022-12-25T12:44:17.629Z,8.08
2022-12-25T12:46:56.043Z,8.07
2022-12-25T12:49:26.967Z,8.06
2022-12-25T12:52:30.818Z,8.04
2022-12-25T12:55:00.611Z,8.03
2022-12-25T12:57:29.694Z,8.03
2022-12-25T12:59:59.952Z,8.01
2022-12-25T13:03:02.841Z,8.03
2022-12-25T13:05:54.549Z,8.02
2022-12-25T13:08:33.258Z,8.02
2022-12-25T13:11:11.348Z,8.02
2022-12-25T13:13:41.876Z,8.03
2022-12-25T13:16:26.447Z,8.03
2022-12-25T13:18:55.009Z,8.02
2022-12-25T13:21:28.942Z,8.00
2022-12-25T13:24:02.584Z,8.02
2022-12-25T13:26:30.082Z,8.02
2022-12-25T13:28:56.911Z,8.03
2022-12-25T13:31:26.464Z,8.03
2022-12-25T13:34:05.111Z,8.02
2022-12-25T13:36:40.274Z,8.01
2022-12-25T13:39:16.615Z,8.02
2022-12-25T13:42:06.467Z,8.02
2022-12-25T13:44:46.845Z,8.03
2022-12-25T13:47:21.291Z,8.01
2022-12-25T13:49:49.540Z,8.02
2022-12-25T13:52:22.818Z,8.01
2022-12-25T13:55:04.552Z,8.00
2022-12-25T13:57:37.487Z,8.00
2022-12-25T14:00:06.736Z,7.97
2022-12-25T14:02:37.187Z,7.99
2022-12-25T14:05:22.158Z,7.99
2022-12-25T14:07:53.493Z,7.99
2022-12-25T14:10:25.702Z,7.98
2022-12-25T14:12:54.376Z,7.98
2022-12-25T14:15:28.299Z,7.98
2022-12-25T14:17:54.860Z,7.97
2022-12-25T14:20:45.824Z,7.97
2022-12-25T14:23:16.187Z,7.97
2022-12-25T14:25:47.058Z,7.96
2022-12-25T14:28:34.153Z,7.96
2022-12-25T14:31:02.716Z,7.97
2022-12-25T14:33:38.914Z,7.97
2022-12-25T14:36:06.953Z,7.97
2022-12-25T14:38:36.875Z,7.96
2022-12-25T14:41:34.460Z,7.96
2022-12-25T14:44:04.328Z,7.96
2022-12-25T14:46:32.460Z,7.97
2022-12-25T14:49:01.683Z,7.97
2022-12-25T14:51:30.280Z,7.97
2022-12-25T14:53:59.193Z,7.97
2022-12-25T14:56:27.832Z,7.97
2022-12-25T14:58:56.894Z,7.96
2022-12-25T15:01:31.695Z,7.96
2022-12-25T15:04:04.761Z,7.96
2022-12-25T15:06:32.921Z,7.97
2022-12-25T15:09:02.168Z,7.97
2022-12-25T15:11:29.252Z,7.95
2022-12-25T15:13:56.124Z,7.95
2022-12-25T15:16:26.068Z,7.95
2022-12-25T15:18:53.966Z,7.96
2022-12-25T15:21:27.266Z,7.96
2022-12-25T15:23:55.985Z,7.95
2022-12-25T15:26:23.389Z,7.95
2022-12-25T15:28:50.164Z,7.96
2022-12-25T15:31:25.007Z,7.96
2022-12-25T15:33:56.423Z,7.97
2022-12-25T15:36:23.923Z,7.96
2022-12-25T15:38:51.316Z,7.95
2022-12-25T15:41:40.833Z,7.93
2022-12-25T15:44:07.609Z,7.93
2022-12-25T15:46:34.770Z,7.94
2022-12-25T15:49:01.318Z,7.93
2022-12-25T15:51:27.824Z,7.93
2022-12-25T15:53:54.371Z,7.94
2022-12-25T15:56:22.251Z,7.94
2022-12-25T15:58:48.722Z,7.94
2022-12-25T16:01:18.879Z,7.94
2022-12-25T16:03:46.241Z,7.94
2022-12-25T16:06:15.211Z,7.95
2022-12-25T16:08:42.330Z,7.95
2022-12-25T16:11:09.566Z,7.95
2022-12-25T16:13:36.521Z,7.94
2022-12-25T16:16:04.172Z,7.93
2022-12-25T16:18:30.831Z,7.92
2022-12-25T16:20:59.134Z,7.91
2022-12-25T16:23:25.617Z,7.89
2022-12-25T16:25:52.003Z,7.90
2022-12-25T16:28:21.371Z,7.90
2022-12-25T16:30:48.127Z,7.89
2022-12-25T16:33:15.295Z,7.91
2022-12-25T16:35:41.799Z,7.91
2022-12-25T16:38:08.368Z,7.92
2022-12-25T16:40:35.047Z,7.91
2022-12-25T16:43:01.525Z,7.92
2022-12-25T16:45:28.248Z,7.91
2022-12-25T16:47:56.537Z,7.91
2022-12-25T16:50:23.381Z,7.89
2022-12-25T16:52:49.772Z,7.88
2022-12-25T16:55:16.235Z,7.90
2022-12-25T16:57:42.720Z,7.89
2022-12-25T17:00:09.874Z,7.89
2022-12-25T17:02:36.450Z,7.90
2022-12-25T17:05:03.140Z,7.88
2022-12-25T17:07:29.575Z,7.88
2022-12-25T17:09:57.133Z,7.85
2022-12-25T17:12:23.632Z,7.85
2022-12-25T17:14:50.131Z,7.85
2022-12-25T17:17:16.518Z,7.85
2022-12-25T17:19:42.901Z,7.83
2022-12-25T17:22:09.448Z,7.84
2022-12-25T17:24:37.286Z,7.84
2022-12-25T17:27:04.225Z,7.81
2022-12-25T17:29:31.942Z,7.82
2022-12-25T17:31:58.424Z,7.80
2022-12-25T17:34:25.150Z,7.80
2022-12-25T17:36:53.668Z,7.79
2022-12-25T17:39:20.169Z,7.80
2022-12-25T17:41:49.337Z,7.80
2022-12-25T17:44:15.922Z,7.81
2022-12-25T17:46:43.055Z,7.81
2022-12-25T17:49:14.304Z,7.81
2022-12-25T17:51:40.898Z,7.80
2022-12-25T17:54:08.391Z,7.77
2022-12-25T17:56:35.391Z,7.79
2022-12-25T17:59:06.656Z,7.78
2022-12-25T18:01:37.606Z,7.78
2022-12-25T18:04:06.124Z,7.77
2022-12-25T18:06:35.089Z,7.76
2022-12-25T18:09:01.826Z,7.76
2022-12-25T18:11:32.801Z,7.77
2022-12-25T18:14:02.915Z,7.77
2022-12-25T18:16:32.499Z,7.76
2022-12-25T18:18:59.668Z,7.77
2022-12-25T18:21:26.976Z,7.76
2022-12-25T18:23:53.546Z,7.75
2022-12-25T18:26:20.556Z,7.74
2022-12-25T18:28:48.611Z,7.73
2022-12-25T18:31:18.712Z,7.69
2022-12-25T18:33:45.299Z,7.69
2022-12-25T18:36:17.748Z,7.69
2022-12-25T18:38:47.083Z,7.70
2022-12-25T18:41:13.650Z,7.67
2022-12-25T18:43:53.122Z,7.67
2022-12-25T18:46:24.264Z,7.67
2022-12-25T18:48:51.462Z,7.65
2022-12-25T18:51:18.447Z,7.62
2022-12-25T18:53:45.161Z,7.63
2022-12-25T18:56:15.614Z,7.63
2022-12-25T18:58:42.876Z,7.63
2022-12-25T19:01:16.001Z,7.65
2022-12-25T19:03:43.995Z,7.66
2022-12-25T19:06:20.516Z,7.65
2022-12-25T19:08:47.007Z,7.66
2022-12-25T19:11:13.581Z,7.67
2022-12-25T19:13:40.249Z,7.67
2022-12-25T19:16:06.991Z,7.66
2022-12-25T19:18:33.478Z,7.66
2022-12-25T19:21:05.079Z,7.67
2022-12-25T19:23:31.600Z,7.67
2022-12-25T19:25:58.123Z,7.68
2022-12-25T19:28:25.177Z,7.66
2022-12-25T19:30:54.961Z,7.67
2022-12-25T19:33:22.192Z,7.67
2022-12-25T19:35:49.863Z,7.69
2022-12-25T19:38:16.361Z,7.69
2022-12-25T19:41:00.113Z,7.70
2022-12-25T19:43:27.976Z,7.71
2022-12-25T19:45:54.559Z,7.71
2022-12-25T19:48:21.008Z,7.69
2022-12-25T19:50:47.578Z,7.67
2022-12-25T19:53:16.723Z,7.67
2022-12-25T19:55:44.352Z,7.67
2022-12-25T19:58:11.599Z,7.67
2022-12-25T20:00:40.351Z,7.67
2022-12-25T20:03:07.079Z,7.67
2022-12-25T20:05:33.547Z,7.70
2022-12-25T20:08:00.048Z,7.71
2022-12-25T20:10:26.471Z,7.71
2022-12-25T20:12:53.289Z,7.71
2022-12-25T20:15:20.176Z,7.72
2022-12-25T20:17:47.450Z,7.71
2022-12-25T20:20:14.217Z,7.73
2022-12-25T20:22:40.604Z,7.73
2022-12-25T20:25:09.184Z,7.75
2022-12-25T20:27:35.635Z,7.75
2022-12-25T20:30:02.218Z,7.75
2022-12-25T20:32:29.549Z,7.76
2022-12-25T20:34:56.055Z,7.75
2022-12-25T20:37:22.485Z,7.77
2022-12-25T20:39:48.874Z,7.77
2022-12-25T20:42:15.361Z,7.78
2022-12-25T20:44:41.842Z,7.79
2022-12-25T20:47:10.636Z,7.79
2022-12-25T20:49:37.012Z,7.79
2022-12-25T20:52:05.851Z,7.78
2022-12-25T20:54:33.146Z,7.79
2022-12-25T20:56:59.683Z,7.77
2022-12-25T20:59:26.095Z,7.78
2022-12-25T21:01:54.334Z,7.78
2022-12-25T21:04:20.897Z,7.77
2022-12-25T21:06:47.411Z,7.76
2022-12-25T21:09:13.897Z,7.77
2022-12-25T21:11:40.354Z,7.76
2022-12-25T21:14:06.970Z,7.76
2022-12-25T21:16:33.484Z,7.77
2022-12-25T21:18:59.989Z,7.76
2022-12-25T21:21:26.785Z,7.76
2022-12-25T21:23:56.894Z,7.78
2022-12-25T21:26:26.442Z,7.78
2022-12-25T21:28:55.646Z,7.77
2022-12-25T21:31:22.306Z,7.80
2022-12-25T21:33:51.916Z,7.81
2022-12-25T21:36:21.232Z,7.81
2022-12-25T21:38:52.527Z,7.81
2022-12-25T21:41:19.066Z,7.82
2022-12-25T21:43:46.067Z,7.83
2022-12-25T21:46:14.447Z,7.82
2022-12-25T21:48:41.940Z,7.84
2022-12-25T21:51:34.835Z,7.88
2022-12-25T21:54:02.359Z,7.88
2022-12-25T21:56:37.097Z,7.89
2022-12-25T21:59:07.993Z,7.90
2022-12-25T22:01:36.706Z,7.92
2022-12-25T22:04:08.743Z,7.91
2022-12-25T22:06:54.643Z,7.91
2022-12-25T22:09:21.912Z,7.92
2022-12-25T22:12:07.694Z,7.93
2022-12-25T22:14:57.096Z,7.93
2022-12-25T22:17:47.852Z,7.93
2022-12-25T22:20:22.267Z,7.93
2022-12-25T22:22:49.233Z,7.95
2022-12-25T22:25:16.052Z,7.95
2022-12-25T22:27:43.961Z,7.95
2022-12-25T22:30:19.106Z,7.97
2022-12-25T22:32:46.359Z,7.97
2022-12-25T22:35:13.825Z,7.97
2022-12-25T22:37:41.672Z,7.97
2022-12-25T22:40:10.056Z,7.99
2022-12-25T22:42:37.084Z,8.00
2022-12-25T22:45:04.184Z,7.99
2022-12-25T22:47:30.686Z,8.00
2022-12-25T22:49:57.245Z,8.00
2022-12-25T22:52:23.769Z,8.00
2022-12-25T22:54:50.301Z,7.98
2022-12-25T22:57:16.758Z,7.99
2022-12-25T22:59:43.372Z,7.99
2022-12-25T23:02:10.039Z,8.00
2022-12-25T23:04:36.759Z,8.00
2022-12-25T23:07:03.918Z,7.99
2022-12-25T23:09:30.715Z,8.02
2022-12-25T23:11:58.669Z,8.00
2022-12-25T23:14:41.656Z,8.03
2022-12-25T23:17:31.695Z,8.04
2022-12-25T23:20:18.722Z,8.04
2022-12-25T23:23:05.232Z,8.06
2022-12-25T23:25:50.605Z,8.06
2022-12-25T23:28:39.631Z,8.04
2022-12-25T23:31:07.081Z,8.05
2022-12-25T23:33:33.716Z,8.04
2022-12-25T23:36:00.278Z,8.06
2022-12-25T23:38:26.803Z,8.07
2022-12-25T23:40:53.255Z,8.08
2022-12-25T23:43:19.698Z,8.07
2022-12-25T23:45:46.192Z,8.07
2022-12-25T23:48:12.707Z,8.09
2022-12-25T23:50:39.135Z,8.09
2022-12-25T23:53:05.634Z,8.09
2022-12-25T23:55:33.490Z,8.07
2022-12-25T23:57:59.945Z,8.07
